createdAt,value
2019-02-20T00:00:11.503Z,61.13
2019-02-20T00:02:44.954Z,59.57
2019-02-20T00:05:17.151Z,58.93
2019-02-20T00:07:48.986Z,52.90
2019-02-20T00:10:20.917Z,59.90
2019-02-20T00:12:52.862Z,58.73
2019-02-20T00:15:24.738Z,58.73
2019-02-20T00:18:05.453Z,55.07
2019-02-20T00:20:37.222Z,64.60
2019-02-20T00:23:11.061Z,63.03
2019-02-20T00:25:43.827Z,61.73
2019-02-20T00:28:17.574Z,61.00
2019-02-20T00:30:49.467Z,64.43
2019-02-20T00:33:21.390Z,63.27
2019-02-20T00:35:53.353Z,65.53
2019-02-20T00:38:25.168Z,73.27
2019-02-20T00:40:57.370Z,53.93
2019-02-20T00:43:29.196Z,54.90
2019-02-20T00:46:18.203Z,56.73
2019-02-20T00:48:55.247Z,48.00
2019-02-20T00:51:55.287Z,56.03
2019-02-20T00:54:27.208Z,51.70
2019-02-20T00:56:59.072Z,45.00
2019-02-20T00:59:34.126Z,44.07
2019-02-20T01:02:05.989Z,43.40
2019-02-20T01:04:37.795Z,48.17
2019-02-20T01:07:09.680Z,47.27
2019-02-20T01:09:42.505Z,42.07
2019-02-20T01:12:15.868Z,44.10
2019-02-20T01:14:49.922Z,40.47
2019-02-20T01:17:24.257Z,43.77
2019-02-20T01:19:57.643Z,51.10
2019-02-20T01:22:29.502Z,51.63
2019-02-20T01:25:01.333Z,47.60
2019-02-20T01:27:33.176Z,46.57
2019-02-20T01:30:05.358Z,48.87
2019-02-20T01:32:37.313Z,46.90
2019-02-20T01:35:09.454Z,47.07
2019-02-20T01:37:41.301Z,45.33
2019-02-20T01:40:13.100Z,43.83
2019-02-20T01:42:44.939Z,45.93
2019-02-20T01:45:17.951Z,48.63
2019-02-20T01:47:49.877Z,41.23
2019-02-20T01:50:21.657Z,42.63
2019-02-20T01:52:53.518Z,39.93
2019-02-20T01:55:25.700Z,42.07
2019-02-20T01:57:57.552Z,47.73
2019-02-20T02:00:29.397Z,38.67
2019-02-20T02:03:01.253Z,38.93
2019-02-20T02:05:41.309Z,38.73
2019-02-20T02:08:22.710Z,42.37
2019-02-20T02:10:54.551Z,46.90
2019-02-20T02:16:39.052Z,38.87
2019-02-20T02:19:12.497Z,42.10
2019-02-20T02:21:44.369Z,48.07
2019-02-20T02:24:48.503Z,43.77
2019-02-20T02:27:20.798Z,43.83
2019-02-20T02:29:52.676Z,47.27
2019-02-20T02:32:28.007Z,45.50
2019-02-20T02:35:03.227Z,50.57
2019-02-20T02:37:36.119Z,49.57
2019-02-20T02:40:08.149Z,49.23
2019-02-20T02:42:40.029Z,53.77
2019-02-20T02:45:12.001Z,49.20
2019-02-20T02:47:43.900Z,49.13
2019-02-20T02:50:15.743Z,49.77
2019-02-20T02:52:53.020Z,42.37
2019-02-20T02:55:24.952Z,44.93
2019-02-20T02:58:11.754Z,38.00
2019-02-20T03:00:43.614Z,49.53
2019-02-20T03:03:15.548Z,40.60
2019-02-20T03:05:47.708Z,44.07
2019-02-20T03:08:19.567Z,46.87
2019-02-20T03:10:51.405Z,50.00
2019-02-20T03:13:23.234Z,43.63
2019-02-20T03:15:58.188Z,41.33
2019-02-20T03:18:30.036Z,40.33
2019-02-20T03:21:01.904Z,44.13
2019-02-20T03:23:39.944Z,46.63
2019-02-20T03:26:07.266Z,44.17
2019-02-20T03:28:40.225Z,48.27
2019-02-20T03:31:12.165Z,40.53
2019-02-20T03:33:45.033Z,39.00
2019-02-20T03:36:17.071Z,38.00
2019-02-20T03:38:49.284Z,39.57
2019-02-20T03:41:21.218Z,33.40
2019-02-20T03:43:53.247Z,38.07
2019-02-20T03:46:26.095Z,33.23
2019-02-20T03:48:58.014Z,34.43
2019-02-20T03:51:30.870Z,39.30
2019-02-20T03:54:02.820Z,33.60
2019-02-20T03:56:34.654Z,36.63
2019-02-20T03:59:09.547Z,37.57
2019-02-20T04:01:41.396Z,34.90
2019-02-20T04:04:14.326Z,33.70
2019-02-20T04:06:46.192Z,44.43
2019-02-20T04:09:18.014Z,43.83
2019-02-20T04:11:49.883Z,42.13
2019-02-20T04:14:24.116Z,46.07
2019-02-20T04:16:55.937Z,40.87
2019-02-20T04:19:27.851Z,58.60
2019-02-20T04:21:59.823Z,51.37
2019-02-20T04:24:31.717Z,52.57
2019-02-20T04:27:03.503Z,52.83
2019-02-20T04:29:35.395Z,52.60
2019-02-20T04:32:07.203Z,50.33
2019-02-20T04:34:39.218Z,53.30
2019-02-20T04:37:10.995Z,45.53
2019-02-20T04:39:42.837Z,41.50
2019-02-20T04:42:15.894Z,43.07
2019-02-20T04:44:47.754Z,45.23
2019-02-20T04:47:19.558Z,45.37
2019-02-20T04:49:51.399Z,47.67
2019-02-20T04:52:23.563Z,49.13
2019-02-20T04:54:56.195Z,57.03
2019-02-20T04:57:28.065Z,52.07
2019-02-20T05:00:00.566Z,54.90
2019-02-20T05:02:32.592Z,46.30
2019-02-20T05:05:06.693Z,50.50
2019-02-20T05:07:41.488Z,50.97
2019-02-20T05:10:13.306Z,46.27
2019-02-20T05:12:45.216Z,53.33
2019-02-20T05:15:17.056Z,42.20
2019-02-20T05:17:49.183Z,50.90
2019-02-20T05:20:21.181Z,43.87
2019-02-20T05:22:53.001Z,44.67
2019-02-20T05:25:24.927Z,41.97
2019-02-20T05:27:56.920Z,43.37
2019-02-20T05:30:30.699Z,48.03
2019-02-20T05:33:02.534Z,41.20
2019-02-20T05:35:34.317Z,47.70
2019-02-20T05:38:06.144Z,42.37
2019-02-20T05:40:39.473Z,59.27
2019-02-20T05:43:11.305Z,53.20
2019-02-20T05:45:43.078Z,54.17
2019-02-20T05:48:15.354Z,45.30
2019-02-20T05:50:47.134Z,52.87
2019-02-20T05:53:19.066Z,52.90
2019-02-20T05:55:52.107Z,64.23
2019-02-20T05:58:24.055Z,61.93
2019-02-20T06:00:55.953Z,52.63
2019-02-20T06:03:27.780Z,56.73
2019-02-20T06:05:59.579Z,48.20
2019-02-20T06:08:31.607Z,49.53
2019-02-20T06:11:12.193Z,46.57
2019-02-20T06:13:37.407Z,50.40
2019-02-20T06:16:09.299Z,56.40
2019-02-20T06:18:42.016Z,47.67
2019-02-20T06:21:17.789Z,48.73
2019-02-20T06:23:49.624Z,46.43
2019-02-20T06:26:21.453Z,52.40
2019-02-20T06:28:53.793Z,49.57
2019-02-20T06:31:25.586Z,53.17
2019-02-20T06:33:57.428Z,50.50
2019-02-20T06:36:29.311Z,55.40
2019-02-20T06:39:05.006Z,49.73
2019-02-20T06:41:39.455Z,41.40
2019-02-20T06:44:11.953Z,51.27
2019-02-20T06:46:43.842Z,51.10
2019-02-20T06:49:16.730Z,49.73
2019-02-20T06:51:48.945Z,56.17
2019-02-20T06:54:20.835Z,57.27
2019-02-20T06:56:52.689Z,53.50
2019-02-20T06:59:24.508Z,50.93
2019-02-20T07:02:00.902Z,55.10
2019-02-20T07:04:32.735Z,51.87
2019-02-20T07:07:25.021Z,44.53
2019-02-20T07:10:32.916Z,57.57
2019-02-20T07:13:58.612Z,50.33
2019-02-20T07:17:20.615Z,45.13
2019-02-20T07:20:35.819Z,51.00
2019-02-20T07:23:24.714Z,52.67
2019-02-20T07:26:40.307Z,45.20
2019-02-20T07:29:52.311Z,47.97
2019-02-20T07:32:25.839Z,49.67
2019-02-20T07:35:00.397Z,49.50
2019-02-20T07:37:32.351Z,49.40
2019-02-20T07:40:04.885Z,57.27
2019-02-20T07:42:36.877Z,55.07
2019-02-20T07:45:14.496Z,57.00
2019-02-20T07:47:46.342Z,49.87
2019-02-20T07:50:22.986Z,52.80
2019-02-20T07:52:57.862Z,48.97
2019-02-20T07:55:29.778Z,47.20
2019-02-20T07:58:01.704Z,40.97
2019-02-20T08:00:33.805Z,44.27
2019-02-20T08:03:07.262Z,46.60
2019-02-20T08:05:39.087Z,44.98
2019-02-20T08:08:10.968Z,42.73
2019-02-20T08:10:42.809Z,42.87
2019-02-20T08:13:15.999Z,41.57
2019-02-20T08:15:47.828Z,42.20
2019-02-20T08:18:20.872Z,43.33
2019-02-20T08:20:52.759Z,36.03
2019-02-20T08:23:24.612Z,42.48
2019-02-20T08:25:56.430Z,41.17
2019-02-20T08:28:28.277Z,37.90
2019-02-20T08:31:00.119Z,41.98
2019-02-20T08:33:31.951Z,41.23
2019-02-20T08:36:03.788Z,38.50
2019-02-20T08:38:36.022Z,36.68
2019-02-20T08:41:07.867Z,41.98
2019-02-20T08:43:42.203Z,43.02
2019-02-20T08:46:14.080Z,41.42
2019-02-20T08:48:45.870Z,41.95
2019-02-20T08:51:17.693Z,39.48
2019-02-20T08:53:49.551Z,42.25
2019-02-20T08:56:22.901Z,43.33
2019-02-20T08:58:54.712Z,40.37
2019-02-20T09:01:27.080Z,37.13
2019-02-20T09:04:01.024Z,39.88
2019-02-20T09:06:32.877Z,33.53
2019-02-20T09:09:05.963Z,38.95
2019-02-20T09:11:39.394Z,37.60
2019-02-20T09:14:17.913Z,33.70
2019-02-20T09:16:53.013Z,36.83
2019-02-20T09:19:24.972Z,38.98
2019-02-20T09:21:56.841Z,35.33
2019-02-20T09:24:28.687Z,39.70
2019-02-20T09:27:00.519Z,37.83
2019-02-20T09:29:33.001Z,39.58
2019-02-20T09:32:04.943Z,34.35
2019-02-20T09:34:36.739Z,32.03
2019-02-20T09:37:08.626Z,38.05
2019-02-20T09:39:40.447Z,36.77
2019-02-20T09:42:18.782Z,34.48
2019-02-20T09:44:51.053Z,39.70
2019-02-20T09:47:22.910Z,48.48
2019-02-20T09:49:54.684Z,48.20
2019-02-20T09:52:26.948Z,43.23
2019-02-20T09:54:58.830Z,41.42
2019-02-20T09:57:30.713Z,39.92
2019-02-20T10:00:02.572Z,32.05
2019-02-20T10:02:36.394Z,39.30
2019-02-20T10:05:09.464Z,35.20
2019-02-20T10:07:41.273Z,42.15
2019-02-20T10:10:14.224Z,38.90
2019-02-20T10:12:48.372Z,38.02
2019-02-20T10:15:20.569Z,39.18
2019-02-20T10:17:52.451Z,43.10
2019-02-20T10:20:24.664Z,40.33
2019-02-20T10:22:56.554Z,38.38
2019-02-20T10:25:28.386Z,41.80
2019-02-20T10:28:00.268Z,40.58
2019-02-20T10:30:32.105Z,42.05
2019-02-20T10:33:03.962Z,46.00
2019-02-20T10:35:35.752Z,48.10
2019-02-20T10:38:07.584Z,45.23
2019-02-20T10:40:39.399Z,55.95
2019-02-20T10:43:11.242Z,64.80
2019-02-20T10:45:43.418Z,72.92
2019-02-20T10:48:15.704Z,84.42
2019-02-20T10:50:47.574Z,84.58
2019-02-20T10:53:21.966Z,78.80
2019-02-20T10:55:53.780Z,71.22
2019-02-20T10:58:25.623Z,71.07
2019-02-20T11:00:57.600Z,76.45
2019-02-20T11:03:29.496Z,66.87
2019-02-20T11:06:01.436Z,71.28
2019-02-20T11:08:33.236Z,57.73
2019-02-20T11:11:05.098Z,58.92
2019-02-20T11:13:37.506Z,56.83
2019-02-20T11:16:09.417Z,65.85
2019-02-20T11:18:41.294Z,62.00
2019-02-20T11:21:13.513Z,63.80
2019-02-20T11:23:45.411Z,51.13
2019-02-20T11:26:18.457Z,49.98
2019-02-20T11:28:51.605Z,50.25
2019-02-20T11:31:24.609Z,53.48
2019-02-20T11:33:56.434Z,45.43
2019-02-20T11:36:28.310Z,49.15
2019-02-20T11:39:00.097Z,39.90
2019-02-20T11:41:32.351Z,42.95
2019-02-20T11:44:04.197Z,45.25
2019-02-20T11:46:38.105Z,47.30
2019-02-20T11:49:09.974Z,47.23
2019-02-20T11:51:44.600Z,50.03
2019-02-20T11:54:16.415Z,48.73
2019-02-20T11:56:48.821Z,48.68
2019-02-20T11:59:21.769Z,44.55
2019-02-20T12:01:53.600Z,41.18
2019-02-20T12:04:25.425Z,47.65
2019-02-20T12:06:57.247Z,46.98
2019-02-20T12:09:29.105Z,49.13
2019-02-20T12:12:00.941Z,47.62
2019-02-20T12:14:33.746Z,50.65
2019-02-20T12:17:05.588Z,44.15
2019-02-20T12:19:39.290Z,46.53
2019-02-20T12:22:11.564Z,42.80
2019-02-20T12:24:43.419Z,39.92
2019-02-20T12:27:15.257Z,41.25
2019-02-20T12:29:47.273Z,45.40
2019-02-20T12:32:19.111Z,46.95
2019-02-20T12:34:52.061Z,40.80
2019-02-20T12:37:25.121Z,46.45
2019-02-20T12:39:57.074Z,43.85
2019-02-20T12:42:28.876Z,42.70
2019-02-20T12:45:00.697Z,43.83
2019-02-20T12:47:32.986Z,47.73
2019-02-20T12:50:06.854Z,40.43
2019-02-20T12:52:38.692Z,40.70
2019-02-20T12:55:12.435Z,40.05
2019-02-20T12:57:44.642Z,42.58
2019-02-20T13:00:18.738Z,39.35
2019-02-20T13:02:50.530Z,38.67
2019-02-20T13:05:23.314Z,45.80
2019-02-20T13:07:55.284Z,43.65
2019-02-20T13:10:27.114Z,47.67
2019-02-20T13:12:58.998Z,49.13
2019-02-20T13:15:30.854Z,48.73
2019-02-20T13:18:02.767Z,48.60
2019-02-20T13:20:37.576Z,48.78
2019-02-20T13:23:09.428Z,55.75
2019-02-20T13:25:43.816Z,48.90
2019-02-20T13:28:15.749Z,50.70
2019-02-20T13:30:47.600Z,58.50
2019-02-20T13:33:19.421Z,53.98
2019-02-20T13:35:52.251Z,56.75
2019-02-20T13:38:25.533Z,51.28
2019-02-20T13:40:57.371Z,54.00
2019-02-20T13:43:30.288Z,48.92
2019-02-20T13:46:02.189Z,51.40
2019-02-20T13:48:34.983Z,60.95
2019-02-20T13:51:07.074Z,45.25
2019-02-20T13:53:46.226Z,53.13
2019-02-20T13:56:15.115Z,53.83
2019-02-20T13:58:46.991Z,49.85
2019-02-20T14:01:18.879Z,52.43
2019-02-20T14:03:50.728Z,50.85
2019-02-20T14:06:22.980Z,52.27
2019-02-20T14:08:59.075Z,49.80
2019-02-20T14:11:31.002Z,50.30
2019-02-20T14:14:03.748Z,52.83
2019-02-20T14:16:35.560Z,56.25
2019-02-20T14:19:07.961Z,51.65
2019-02-20T14:21:39.801Z,47.78
2019-02-20T14:24:13.740Z,50.00
2019-02-20T14:26:45.927Z,50.60
2019-02-20T14:29:17.771Z,38.28
2019-02-20T14:31:49.767Z,33.58
2019-02-20T14:34:21.742Z,55.00
2019-02-20T14:36:53.562Z,37.42
2019-02-20T14:39:29.171Z,39.80
2019-02-20T14:42:02.319Z,38.78
2019-02-20T14:44:35.557Z,32.55
2019-02-20T14:47:07.547Z,36.45
2019-02-20T14:49:39.471Z,28.65
2019-02-20T14:52:11.648Z,28.42
2019-02-20T14:54:43.543Z,31.12
2019-02-20T14:57:19.676Z,32.60
2019-02-20T14:59:50.374Z,28.75
2019-02-20T15:02:22.333Z,34.75
2019-02-20T15:04:54.962Z,32.60
2019-02-20T15:07:28.425Z,27.90
2019-02-20T15:10:00.463Z,35.92
2019-02-20T15:12:32.399Z,24.77
2019-02-20T15:15:10.609Z,29.63
2019-02-20T15:17:39.879Z,32.13
2019-02-20T15:20:12.007Z,32.05
2019-02-20T15:22:43.883Z,85.05
2019-02-20T15:25:15.732Z,44.30
2019-02-20T15:27:47.700Z,29.23
2019-02-20T15:30:19.530Z,62.90
2019-02-20T15:32:51.354Z,44.60
2019-02-20T15:35:23.290Z,87.97
2019-02-20T15:37:55.092Z,60.35
2019-02-20T15:40:27.137Z,34.95
2019-02-20T15:42:58.962Z,29.50
2019-02-20T15:45:30.770Z,32.33
2019-02-20T15:48:03.221Z,32.45
2019-02-20T15:50:35.019Z,33.63
2019-02-20T15:53:07.065Z,29.15
2019-02-20T15:55:39.278Z,34.45
2019-02-20T15:58:11.447Z,25.77
2019-02-20T16:00:43.609Z,38.53
2019-02-20T16:03:15.468Z,27.10
2019-02-20T16:05:48.765Z,30.50
2019-02-20T16:08:21.551Z,97.92
2019-02-20T16:10:53.404Z,25.88
2019-02-20T16:13:26.639Z,21.60
2019-02-20T16:15:58.460Z,27.98
2019-02-20T16:18:30.960Z,30.95
2019-02-20T16:21:02.901Z,34.03
2019-02-20T16:23:35.704Z,38.88
2019-02-20T16:26:07.583Z,33.78
2019-02-20T16:28:39.464Z,29.10
2019-02-20T16:31:11.850Z,31.17
2019-02-20T16:33:43.726Z,28.32
2019-02-20T16:36:15.774Z,20.60
2019-02-20T16:38:48.998Z,45.60
2019-02-20T16:41:20.906Z,44.18
2019-02-20T16:43:52.749Z,31.45
2019-02-20T16:46:24.601Z,23.85
2019-02-20T16:48:56.430Z,25.08
2019-02-20T16:51:31.452Z,29.07
2019-02-20T16:54:04.932Z,23.15
2019-02-20T16:56:38.945Z,27.32
2019-02-20T16:59:10.776Z,30.85
2019-02-20T17:01:42.712Z,25.65
2019-02-20T17:04:16.329Z,26.90
2019-02-20T17:06:48.278Z,27.32
2019-02-20T17:09:20.079Z,24.57
2019-02-20T17:11:51.899Z,26.00
2019-02-20T17:14:25.440Z,23.70
2019-02-20T17:16:57.760Z,24.75
2019-02-20T17:19:32.365Z,27.85
2019-02-20T17:22:04.260Z,29.30
2019-02-20T17:24:36.280Z,27.55
2019-02-20T17:27:08.348Z,27.87
2019-02-20T17:29:40.234Z,24.72
2019-02-20T17:32:12.145Z,30.30
2019-02-20T17:34:45.230Z,29.00
2019-02-20T17:37:17.504Z,31.23
2019-02-20T17:39:49.327Z,23.05
2019-02-20T17:42:21.296Z,27.60
2019-02-20T17:44:53.165Z,43.35
2019-02-20T17:47:26.672Z,76.72
2019-02-20T17:49:58.528Z,117.47
2019-02-20T17:52:30.424Z,227.28
2019-02-20T17:55:04.077Z,289.98
2019-02-20T17:57:36.963Z,175.97
2019-02-20T18:00:11.193Z,218.50
2019-02-20T18:02:43.635Z,139.07
2019-02-20T18:05:15.555Z,110.17
2019-02-20T18:07:51.502Z,142.00
2019-02-20T18:10:21.012Z,174.25
2019-02-20T18:12:52.885Z,177.62
2019-02-20T18:15:26.361Z,163.90
2019-02-20T18:17:58.195Z,142.70
2019-02-20T18:20:30.767Z,135.05
2019-02-20T18:23:02.627Z,137.03
2019-02-20T18:25:34.706Z,123.90
2019-02-20T18:28:06.659Z,121.75
2019-02-20T18:30:38.579Z,117.25
2019-02-20T18:33:10.574Z,115.75
2019-02-20T18:35:42.469Z,121.82
2019-02-20T18:38:14.410Z,91.67
2019-02-20T18:40:46.248Z,98.95
2019-02-20T18:43:18.443Z,104.55
2019-02-20T18:45:50.305Z,70.50
2019-02-20T18:48:22.237Z,62.90
2019-02-20T18:50:54.161Z,63.08
2019-02-20T18:53:26.030Z,73.35
2019-02-20T18:55:57.942Z,61.45
2019-02-20T18:58:33.932Z,70.55
2019-02-20T19:01:03.594Z,70.85
2019-02-20T19:03:35.464Z,69.27
2019-02-20T19:06:07.683Z,73.87
2019-02-20T19:08:45.092Z,80.47
2019-02-20T19:11:58.131Z,79.67
2019-02-20T19:14:52.155Z,86.08
2019-02-20T19:17:48.275Z,76.70
2019-02-20T19:20:52.102Z,70.78
2019-02-20T19:24:00.135Z,74.70
2019-02-20T19:26:59.990Z,72.50
2019-02-20T19:29:54.672Z,68.97
2019-02-20T19:32:41.347Z,67.97
2019-02-20T19:35:58.540Z,65.35
2019-02-20T19:38:50.213Z,68.15
2019-02-20T19:41:33.369Z,81.15
2019-02-20T19:44:27.871Z,68.75
2019-02-20T19:47:33.457Z,74.30
2019-02-20T19:51:03.515Z,74.58
2019-02-20T19:53:58.004Z,230.37
2019-02-20T19:57:15.289Z,92.72
2019-02-20T20:00:17.739Z,66.30
2019-02-20T20:03:37.139Z,66.33
2019-02-20T20:06:18.830Z,74.15
2019-02-20T20:09:13.041Z,83.42
2019-02-20T20:12:41.021Z,75.70
2019-02-20T20:16:04.535Z,81.60
2019-02-20T20:19:17.486Z,81.25
2019-02-20T20:22:21.563Z,76.87
2019-02-20T20:25:55.266Z,99.03
2019-02-20T20:29:07.247Z,101.35
2019-02-20T20:32:20.675Z,98.67
2019-02-20T20:35:51.499Z,87.70
2019-02-20T20:39:05.866Z,97.27
2019-02-20T20:42:54.476Z,111.60
2019-02-20T20:46:06.225Z,113.68
2019-02-20T20:49:12.508Z,117.77
2019-02-20T20:52:20.858Z,112.97
2019-02-20T20:55:38.781Z,115.85
2019-02-20T20:58:40.417Z,116.53
2019-02-20T21:01:45.259Z,121.30
2019-02-20T21:05:09.165Z,106.97
2019-02-20T21:08:31.185Z,101.42
2019-02-20T21:11:46.476Z,99.92
2019-02-20T21:15:03.428Z,102.12
2019-02-20T21:18:07.140Z,92.05
2019-02-20T21:21:14.853Z,93.90
2019-02-20T21:24:31.570Z,95.25
2019-02-20T21:27:41.046Z,149.55
2019-02-20T21:30:45.226Z,139.97
2019-02-20T21:33:53.797Z,115.92
2019-02-20T21:37:00.613Z,145.25
2019-02-20T21:39:47.477Z,162.12
2019-02-20T21:42:50.545Z,136.07
2019-02-20T21:46:02.754Z,100.35
2019-02-20T21:49:13.784Z,128.40
2019-02-20T21:52:19.799Z,135.12
2019-02-20T21:55:21.276Z,127.22
2019-02-20T21:58:50.547Z,124.42
2019-02-20T22:01:49.822Z,139.88
2019-02-20T22:05:04.713Z,148.82
2019-02-20T22:08:22.207Z,157.22
2019-02-20T22:11:24.309Z,141.73
2019-02-20T22:14:12.783Z,120.50
2019-02-20T22:17:14.926Z,115.80
2019-02-20T22:20:47.526Z,134.65
2019-02-20T22:23:41.667Z,131.72
2019-02-20T22:26:54.743Z,136.17
2019-02-20T22:30:13.908Z,147.25
2019-02-20T22:33:33.761Z,141.77
2019-02-20T22:36:43.509Z,152.30
2019-02-20T22:39:44.467Z,129.42
2019-02-20T22:43:02.408Z,128.53
2019-02-20T22:46:09.176Z,143.93
2019-02-20T22:49:04.583Z,138.72
2019-02-20T22:52:25.238Z,143.35
2019-02-20T22:55:48.724Z,133.35
2019-02-20T22:58:54.074Z,138.20
2019-02-20T23:02:03.581Z,132.35
2019-02-20T23:05:12.411Z,138.62
2019-02-20T23:08:14.381Z,132.85
2019-02-20T23:11:24.316Z,116.67
2019-02-20T23:14:30.921Z,138.18
2019-02-20T23:17:04.707Z,132.03
2019-02-20T23:19:37.008Z,135.47
2019-02-20T23:22:09.102Z,128.65
2019-02-20T23:24:42.120Z,156.43
2019-02-20T23:27:14.571Z,150.18
2019-02-20T23:29:46.570Z,162.13
2019-02-20T23:32:18.442Z,182.50
2019-02-20T23:34:50.569Z,158.52
2019-02-20T23:37:22.374Z,139.03
2019-02-20T23:39:54.670Z,128.40
2019-02-20T23:42:26.702Z,144.68
2019-02-20T23:44:58.811Z,136.52
2019-02-20T23:47:30.717Z,144.10
2019-02-20T23:50:02.554Z,151.05
2019-02-20T23:52:34.420Z,148.73
2019-02-20T23:55:09.691Z,151.47
2019-02-20T23:57:41.500Z,147.73
